x

Buoy E01 - Central Maine Shelf (44032) Wave Buoy

12:04 - Sat 10th Dec 2016 All times are EST. -5 hours from GMT.

  • Sig Wave height 3.0ft
  • Peak Period 4s
  • Wind
    18mph, 25mph gusts
  • Sea Temp 49°f
  • Aire Temp 25°f
  • Sea Pressure 1022.2mb
  • Buoy E01 - Central Maine Shelf
  • Buoy E01 - Central Maine Shelf

More Historic Weather Station data

Upgrade to MSW Pro to gain access to the past 30 days of data for over 8000 Wavebouys and Weather Stations around the globe.

Join Pro

Comparision Forecast

View Surf forecast
   
sáb 12/10 12:04 3ft 4s 18 25 mph 1022.2mb 49f 25f
11:04 3ft 4s 18 25 mph 1022.8mb 49f 25f
10:04 3ft 4s 18 25 mph 1023.5mb 49f 23f
9:04 3.5ft 4s 20 27 mph 1023.3mb 49f 23f
8:04 3.5ft 4s 22 31 mph 1022.8mb 50f 23f
7:04 3.5ft 4s  -  mph - 50f -
6:04 3.5ft 4s 27 34 mph 1021.7mb 50f 24f
5:04 3.5ft 4s 27 34 mph 1020.9mb 50f 23f
4:04 3.5ft 4s 25 31 mph 1020.8mb 50f 22f
3:04 4ft 4s 25 31 mph 1020.3mb 50f 22f
2:04 4.5ft 5s 27 34 mph 1019.5mb 50f 25f
1:04 4.5ft 4s 27 34 mph 1019.1mb 50f 28f
12:04 4.5ft 5s 27 34 mph 1018.2mb 50f 28f
vie 12/09 11:04 4ft 5s 25 36 mph 1018mb 49f 28f
10:04 4ft 5s 25 34 mph 1017.6mb 50f 29f
9:04 4.5ft 4s 25 31 mph 1016.9mb 50f 29f
8:04 4.5ft 5s 25 34 mph 1016.6mb 50f 30f
7:04 5ft 5s 27 36 mph 1016mb 50f 30f
6:04 5ft 5s 25 36 mph 1015.4mb 50f 31f
5:04 5ft 5s 27 38 mph 1014.6mb 50f 32f
4:04 4.5ft 5s 29 36 mph 1013.3mb 50f 32f
3:04 4.5ft 5s 27 34 mph 1012.2mb 50f 32f
2:04 5ft 4s 27 31 mph 1011.3mb 50f 33f
mié 12/07 10:04  -   -  7 11 mph 1015.8mb 50f 38f
9:04 1.6ft 3s 9 13 mph 1015.7mb 50f 38f
8:04  -   -  11 16 mph 1015.2mb 50f 38f
7:04 3.5ft 11s 13 16 mph 1014.6mb 50f 38f
6:04 1.6ft 3s 11 13 mph 1014.8mb - 38f
5:04 1.6ft 3s 16 18 mph 1013.9mb 50f 37f
4:04 2.5ft 11s 13 16 mph 1015mb 50f 37f
3:04 2ft 11s 11 13 mph 1015.7mb 50f 36f
2:04 2.5ft 11s 7 13 mph 1016.1mb - 35f
1:04 1.3ft 4s 11 16 mph 1016mb 50f 35f
12:04 1.3ft 3s 9 11 mph 1016.5mb 50f 35f
mar 12/06 11:04 1.3ft 3s 9 11 mph 1017.2mb 50f 35f
10:04 1.3ft 3s 11 16 mph 1017.4mb - 35f
7:04 2ft 11s 9 11 mph 1017.4mb 50f 35f